Time;durP1;ratioP1;P1;durP2;ratioP2;P2;SDS_P1;SDS_P2;PMS_P1;PMS_P2;Temp;Humidity;BMP_temperature;BMP_pressure;BME280_temperature;BME280_humidity;BME280_pressure;Samples;Min_cycle;Max_cycle;Signal;HPM_P1;HPM_P2
2022/10/04 00:01:18;;;;;;;;;;;11.00;99.90;;;9.64;100.00;101587.66;4937733;28;20039;-80
2022/10/04 00:03:53;;;;;;;18.15;3.05;;;11.00;99.90;;;9.62;100.00;101586.84;4956481;28;19910;-81
2022/10/04 00:06:23;;;;;;;28.02;3.40;;;10.90;99.90;;;9.68;100.00;101591.09;4939775;29;20031;-81
2022/10/04 00:09:06;;;;;;;29.52;3.95;;;11.00;99.90;;;9.65;100.00;101592.88;4968638;28;20054;-79
2022/10/04 00:11:42;;;;;;;31.70;3.85;;;10.90;99.90;;;9.63;100.00;101591.19;4945174;28;20038;-81
2022/10/04 00:14:38;;;;;;;28.38;3.17;;;10.90;99.90;;;9.63;100.00;101596.44;4955898;28;20102;-80
2022/10/04 00:17:20;;;;;;;26.05;3.97;;;10.90;99.90;;;9.64;100.00;101591.16;4939048;28;20043;-80
2022/10/04 00:19:58;;;;;;;23.85;3.92;;;10.90;99.90;;;9.64;100.00;101590.28;4939246;29;20035;-81
2022/10/04 00:22:36;;;;;;;35.28;4.38;;;10.90;99.90;;;9.61;100.00;101595.63;4951933;28;20027;-81
2022/10/04 00:25:16;;;;;;;18.17;2.83;;;10.90;99.90;;;9.61;100.00;101591.25;4953300;28;20086;-79
2022/10/04 00:28:44;;;;;;;32.35;3.35;;;10.90;99.90;;;9.54;100.00;101583.56;4955187;28;20423;-81
2022/10/04 00:31:19;;;;;;;21.55;2.85;;;10.80;99.90;;;9.51;100.00;101579.28;4942555;28;20071;-81
2022/10/04 00:34:07;;;;;;;28.50;3.23;;;10.80;99.90;;;9.47;100.00;101577.63;4954905;28;20034;-81
2022/10/04 00:36:50;;;;;;;24.35;2.95;;;10.80;99.90;;;9.48;100.00;101574.13;4958497;28;20150;-81
2022/10/04 00:39:40;;;;;;;23.38;2.78;;;10.80;99.90;;;9.48;100.00;101578.47;4971310;28;20031;-80
2022/10/04 00:42:22;;;;;;;28.17;4.13;;;10.70;99.90;;;9.45;100.00;101579.44;4972035;28;20034;-81
2022/10/04 00:45:45;;;;;;;30.70;3.95;;;10.70;99.90;;;9.46;100.00;101581.19;4970950;28;20066;-81
2022/10/04 00:48:33;;;;;;;18.77;2.90;;;10.70;99.90;;;9.42;100.00;101580.38;4940334;28;20051;-81
2022/10/04 00:51:37;;;;;;;33.65;3.72;;;10.70;99.90;;;9.44;100.00;101588.25;4959224;28;20685;-81
2022/10/04 00:54:49;;;;;;;29.48;3.45;;;10.70;99.90;;;9.44;100.00;101583.00;4974402;28;20035;-81
2022/10/04 00:57:23;;;;;;;25.95;3.40;;;10.60;99.90;;;9.38;100.00;101589.25;4959500;28;20103;-81
2022/10/04 00:59:58;;;;;;;20.98;2.85;;;10.60;99.90;;;9.30;100.00;101585.13;4950983;28;20086;-81
2022/10/04 01:02:51;;;;;;;29.65;3.75;;;10.50;99.90;;;9.18;100.00;101584.56;4974354;28;20049;-81
2022/10/04 01:05:38;;;;;;;28.80;3.30;;;10.50;99.90;;;9.09;100.00;101576.06;4958479;28;20547;-81
2022/10/04 01:08:44;;;;;;;27.27;2.92;;;10.40;99.90;;;9.00;100.00;101575.38;4957095;28;20024;-81
2022/10/04 01:11:28;;;;;;;26.90;3.22;;;10.30;99.90;;;8.96;100.00;101579.03;4932453;28;20035;-79
2022/10/04 01:14:35;;;;;;;28.05;3.53;;;10.30;99.90;;;8.94;100.00;101574.69;4956416;28;20449;-80
2022/10/04 01:17:02;;;;;;;33.50;3.88;;;10.20;99.90;;;8.95;100.00;101582.53;4959567;28;20571;-80
2022/10/04 01:19:31;;;;;;;30.67;3.70;;;10.30;99.90;;;9.00;100.00;101585.03;4955039;28;20047;-81
2022/10/04 01:22:04;;;;;;;29.30;3.88;;;10.30;99.90;;;9.05;100.00;101585.81;4947214;28;20032;-78
2022/10/04 01:24:43;;;;;;;33.13;3.83;;;10.30;99.90;;;9.05;100.00;101575.28;4966033;28;20036;-81
2022/10/04 01:27:42;;;;;;;27.33;3.63;;;10.30;99.90;;;9.04;100.00;101571.78;4954360;28;20027;-81
2022/10/04 01:30:17;;;;;;;32.17;3.83;;;10.30;99.90;;;9.05;100.00;101570.03;4957131;28;20038;-81
2022/10/04 01:32:43;;;;;;;32.78;3.70;;;10.40;99.90;;;9.11;100.00;101579.50;4956045;28;20031;-81
2022/10/04 01:35:12;;;;;;;32.75;3.55;;;10.40;99.90;;;9.20;100.00;101574.00;4957714;28;20028;-81
2022/10/04 01:37:39;;;;;;;33.42;3.92;;;10.50;99.90;;;9.32;100.00;101578.06;4957258;28;20570;-81
2022/10/04 01:40:09;;;;;;;43.17;4.65;;;10.60;99.90;;;9.44;100.00;101577.72;4956418;28;20032;-81
2022/10/04 01:42:53;;;;;;;31.63;3.80;;;10.70;99.90;;;9.44;100.00;101575.97;4936965;29;20019;-81
2022/10/04 01:45:34;;;;;;;38.35;4.50;;;10.70;99.90;;;9.49;100.00;101575.81;4955125;28;20532;-80
2022/10/04 01:48:14;;;;;;;29.08;4.35;;;10.70;99.90;;;9.53;100.00;101579.22;4940754;28;20043;-80
2022/10/04 01:50:54;;;;;;;40.20;6.15;;;10.80;99.90;;;9.62;100.00;101582.44;4959773;28;20407;-81
2022/10/04 01:53:33;;;;;;;52.05;5.75;;;10.80;99.90;;;9.71;100.00;101573.44;4956423;28;20585;-80
2022/10/04 01:56:26;;;;;;;38.28;5.45;;;10.90;99.90;;;9.80;100.00;101577.53;4963496;28;20067;-81
2022/10/04 01:59:04;;;;;;;39.97;4.22;;;11.00;99.90;;;9.81;100.00;101571.41;4955345;28;20035;-81
2022/10/04 02:01:47;;;;;;;37.45;4.78;;;11.00;99.90;;;9.87;100.00;101581.75;4941183;28;20031;-81
2022/10/04 02:04:41;;;;;;;30.23;4.57;;;11.10;99.90;;;9.94;100.00;101566.63;4963312;28;20063;-80
2022/10/04 02:07:14;;;;;;;36.50;4.10;;;11.10;99.90;;;9.99;100.00;101575.22;4955293;28;20062;-80
2022/10/04 02:09:49;;;;;;;29.83;4.18;;;11.20;99.90;;;10.03;100.00;101577.72;4954082;28;20387;-79
2022/10/04 02:12:17;;;;;;;30.98;3.75;;;11.20;99.90;;;10.07;100.00;101578.50;4941436;28;20113;-81
2022/10/04 02:14:52;;;;;;;26.60;4.25;;;11.30;99.90;;;10.12;100.00;101565.19;4958286;28;20026;-80
2022/10/04 02:17:32;;;;;;;27.30;3.88;;;11.30;99.90;;;10.16;100.00;101566.81;4970748;28;20035;-81
2022/10/04 02:20:00;;;;;;;31.70;4.63;;;11.40;99.90;;;10.14;100.00;101561.59;4952964;28;20499;-81
2022/10/04 02:22:26;;;;;;;26.70;3.33;;;11.30;99.90;;;10.09;100.00;101570.56;4938293;28;20034;-80
2022/10/04 02:24:58;;;;;;;31.98;4.40;;;11.30;99.90;;;10.02;100.00;101564.59;4956894;28;20063;-79
2022/10/04 02:27:30;;;;;;;28.45;4.25;;;11.20;99.90;;;9.96;100.00;101570.94;4941200;28;20118;-81
2022/10/04 02:30:09;;;;;;;35.50;4.53;;;11.20;99.90;;;9.89;100.00;101572.00;4969353;28;20732;-80
2022/10/04 02:32:57;;;;;;;26.90;3.72;;;11.10;99.90;;;9.79;100.00;101574.06;4970054;28;20031;-81
2022/10/04 02:35:46;;;;;;;33.65;4.15;;;11.00;99.90;;;9.68;100.00;101575.31;4955675;28;20031;-80
2022/10/04 02:38:21;;;;;;;41.50;4.35;;;10.90;99.90;;;9.53;100.00;101571.34;4955795;28;21799;-79
2022/10/04 02:41:15;;;;;;;28.30;4.50;;;10.80;99.90;;;9.49;100.00;101567.06;4956710;28;20038;-80
2022/10/04 02:44:00;;;;;;;31.65;4.07;;;10.70;99.90;;;9.45;100.00;101563.66;4937707;28;20419;-80
2022/10/04 02:46:50;;;;;;;30.90;4.63;;;10.70;99.90;;;9.43;100.00;101565.47;4938968;29;20534;-81
2022/10/04 02:49:48;;;;;;;23.77;4.90;;;10.70;99.90;;;9.38;100.00;101556.88;4956317;28;20147;-81
2022/10/04 02:52:30;;;;;;;36.20;4.65;;;10.60;99.90;;;9.30;100.00;101553.59;4969286;28;20035;-80
2022/10/04 02:55:23;;;;;;;33.55;4.28;;;10.50;99.90;;;9.23;100.00;101555.53;4953928;28;20031;-81
2022/10/04 02:57:51;;;;;;;37.55;4.40;;;10.50;99.90;;;9.15;100.00;101560.13;4969682;28;20040;-80
2022/10/04 03:00:31;;;;;;;35.72;5.18;;;10.50;99.90;;;9.11;100.00;101559.34;4956247;28;20026;-81
2022/10/04 03:03:15;;;;;;;36.42;4.85;;;10.40;99.90;;;9.11;100.00;101555.84;4969618;28;20042;-80
2022/10/04 03:06:18;;;;;;;29.38;4.55;;;10.40;99.90;;;9.08;100.00;101554.19;4952405;28;20065;-80
2022/10/04 03:09:04;;;;;;;33.45;4.65;;;10.40;99.90;;;9.12;100.00;101550.56;4950994;28;20051;-80
2022/10/04 03:11:38;;;;;;;37.28;4.88;;;10.40;99.90;;;9.15;100.00;101553.09;4954688;28;20587;-79
2022/10/04 03:14:33;;;;;;;31.40;4.68;;;10.40;99.90;;;9.17;100.00;101551.28;4951792;28;20047;-80
2022/10/04 03:17:02;;;;;;;29.75;4.78;;;10.40;99.90;;;9.16;100.00;101544.31;4953507;28;20071;-80
2022/10/04 03:19:37;;;;;;;31.95;4.82;;;10.40;99.90;;;9.16;100.00;101551.34;4953424;28;20035;-79
2022/10/04 03:22:10;;;;;;;33.25;4.85;;;10.40;99.90;;;9.11;100.00;101547.97;4923753;29;20027;-81
2022/10/04 03:24:49;;;;;;;29.55;5.53;;;10.40;99.90;;;9.09;100.00;101548.00;4970496;28;20035;-80
2022/10/04 03:27:25;;;;;;;37.70;5.05;;;10.30;99.90;;;9.08;100.00;101548.06;4951057;28;20031;-81
2022/10/04 03:29:52;;;;;;;29.67;4.80;;;10.30;99.90;;;9.07;100.00;101547.22;4943922;28;20412;-80
2022/10/04 03:32:19;;;;;;;28.98;4.65;;;10.40;99.90;;;9.11;100.00;101543.56;4924045;29;20035;-80
2022/10/04 03:34:58;;;;;;;40.70;5.50;;;10.40;99.90;;;9.17;100.00;101538.16;4970147;28;20015;-81
2022/10/04 03:37:36;;;;;;;39.65;5.90;;;10.40;99.90;;;9.26;100.00;101546.69;4969316;28;20046;-79
2022/10/04 03:40:13;;;;;;;28.60;5.28;;;10.50;99.90;;;9.32;100.00;101554.41;4936238;28;20110;-79
2022/10/04 03:42:46;;;;;;;28.25;5.38;;;10.60;99.90;;;9.38;100.00;101554.25;4953520;28;20102;-78
2022/10/04 03:45:18;;;;;;;34.20;5.28;;;10.60;99.90;;;9.48;100.00;101558.34;4956873;28;20427;-81
2022/10/04 03:47:47;;;;;;;27.60;4.90;;;10.70;99.90;;;9.56;100.00;101550.22;4952786;28;20023;-80
2022/10/04 03:50:43;;;;;;;44.55;5.55;;;10.80;99.90;;;9.63;100.00;101554.38;4953944;28;20046;-81
2022/10/04 03:53:38;;;;;;;33.35;4.53;;;10.80;99.90;;;9.74;100.00;101561.94;4952394;28;20039;-81
2022/10/04 03:56:31;;;;;;;39.60;5.15;;;10.90;99.90;;;9.80;100.00;101559.13;4969553;28;20642;-80
2022/10/04 03:58:57;;;;;;;34.03;5.70;;;11.00;99.90;;;9.82;100.00;101555.53;4955595;28;20055;-81
2022/10/04 04:01:55;;;;;;;42.28;5.60;;;11.00;99.90;;;9.83;100.00;101559.91;4954158;28;20024;-81
2022/10/04 04:04:41;;;;;;;;;;;11.00;99.90;;;9.77;100.00;101559.25;4954934;28;20488;-81
2022/10/04 04:07:26;;;;;;;37.63;5.05;;;10.90;99.90;;;9.77;100.00;101565.34;4964364;28;19963;-80
2022/10/04 04:10:18;;;;;;;32.25;4.78;;;11.00;99.90;;;9.83;100.00;101562.53;4970396;28;20041;-80
2022/10/04 04:13:01;;;;;;;34.65;4.70;;;11.00;99.90;;;9.88;100.00;101572.06;4947725;28;20035;-80
2022/10/04 04:15:31;;;;;;;40.28;4.80;;;11.10;99.90;;;9.92;100.00;101568.44;4968774;28;20032;-81
2022/10/04 04:18:17;;;;;;;38.78;4.97;;;11.10;99.90;;;9.98;100.00;101569.13;4941887;28;20035;-80
2022/10/04 04:20:44;;;;;;;34.30;4.78;;;11.10;99.90;;;10.04;100.00;101571.56;4955274;28;20039;-81
2022/10/04 04:23:13;;;;;;;29.63;4.38;;;11.20;99.90;;;10.04;100.00;101574.19;4951735;28;20067;-80
2022/10/04 04:25:50;;;;;;;35.08;5.20;;;11.20;99.90;;;10.05;100.00;101577.69;4954624;28;20082;-80
2022/10/04 04:29:01;;;;;;;36.35;5.40;;;11.10;99.90;;;9.97;100.00;101567.38;4951136;28;20067;-80
2022/10/04 04:31:43;;;;;;;31.27;4.22;;;11.10;99.90;;;9.83;100.00;101572.22;4956848;28;20064;-81
2022/10/04 04:34:24;;;;;;;46.53;4.70;;;11.00;99.90;;;9.76;100.00;101570.66;4965192;28;20031;-80
2022/10/04 04:36:57;;;;;;;33.72;4.90;;;10.90;99.90;;;9.66;100.00;101570.06;4953027;28;20047;-80
2022/10/04 04:39:38;;;;;;;34.65;5.20;;;10.80;99.90;;;9.58;100.00;101567.66;4965826;28;20027;-80
2022/10/04 04:42:13;;;;;;;40.17;4.72;;;10.80;99.90;;;9.56;100.00;101574.72;4958875;28;20024;-80
2022/10/04 04:45:15;;;;;;;28.20;3.78;;;10.80;99.90;;;9.56;100.00;101573.88;4957780;28;20615;-79
2022/10/04 04:47:56;;;;;;;32.30;5.05;;;10.70;99.90;;;9.47;100.00;101571.50;4944567;28;20062;-81
2022/10/04 04:50:34;;;;;;;33.90;5.18;;;10.60;99.90;;;9.35;100.00;101564.81;4958804;28;20447;-81
2022/10/04 04:53:11;;;;;;;38.45;5.13;;;10.50;99.90;;;9.23;100.00;101569.53;4924851;28;20027;-80
2022/10/04 04:56:03;;;;;;;37.95;5.25;;;10.50;99.90;;;9.12;100.00;101568.97;4956125;28;20035;-81
2022/10/04 04:58:40;;;;;;;46.92;6.25;;;10.30;99.90;;;9.01;100.00;101571.03;4956368;28;20933;-80
2022/10/04 05:01:21;;;;;;;46.50;5.65;;;10.30;99.90;;;8.93;100.00;101565.97;4958523;28;20062;-79
2022/10/04 05:04:27;;;;;;;40.40;5.57;;;10.20;99.90;;;8.87;100.00;101565.25;4957841;28;20042;-79
2022/10/04 05:07:15;;;;;;;41.63;6.25;;;10.10;99.90;;;8.77;100.00;101562.88;4935348;28;20504;-80
2022/10/04 05:09:46;;;;;;;51.22;6.78;;;10.00;99.90;;;8.70;100.00;101574.41;4950507;28;20523;-80
2022/10/04 05:12:30;;;;;;;43.65;6.03;;;10.00;99.90;;;8.66;100.00;101578.03;4957238;23;20253;-86
2022/10/04 05:14:59;;;;;;;52.33;6.03;;;;;;;8.62;100.00;101579.03;4936641;29;20080;-87
2022/10/04 05:17:37;;;;;;;46.83;6.07;;;;;;;8.60;100.00;101567.69;4919116;29;20049;-86
2022/10/04 05:20:12;;;;;;;36.97;5.57;;;;;;;8.60;100.00;101573.81;4917040;29;20516;-86
2022/10/04 05:22:51;;;;;;;41.55;5.75;;;9.90;99.90;;;8.64;100.00;101571.97;4934298;29;20032;-87
2022/10/04 05:25:33;;;;;;;33.35;5.78;;;;;;;8.75;100.00;101572.56;4910811;29;20039;-86
2022/10/04 05:28:00;;;;;;;40.92;5.68;;;;;;;8.87;100.00;101575.75;4927626;29;21320;-86
2022/10/04 05:30:41;;;;;;;45.58;6.18;;;10.10;99.90;;;9.04;100.00;101570.94;4933815;29;20032;-86
2022/10/04 05:34:07;;;;;;;36.17;5.93;;;10.30;99.90;;;9.23;100.00;101577.41;4921647;29;20983;-86
2022/10/04 05:37:18;;;;;;;41.38;6.20;;;10.40;99.90;;;9.36;100.00;101584.97;4903882;29;20051;-86
2022/10/04 05:40:22;;;;;;;40.38;5.50;;;;;;;9.43;100.00;101578.63;4931635;29;20678;-86
2022/10/04 05:42:53;;;;;;;39.47;5.97;;;10.60;99.90;;;9.48;100.00;101587.25;4933545;28;20067;-87
2022/10/04 05:45:23;;;;;;;39.03;5.38;;;;;;;9.63;100.00;101594.69;4922439;29;20087;-87
2022/10/04 05:48:27;;;;;;;30.67;5.30;;;;;;;9.82;100.00;101599.41;4908192;29;20455;-87
2022/10/04 05:50:52;;;;;;;44.30;5.50;;;10.90;99.90;;;9.93;100.00;101597.31;4914743;29;20040;-87
2022/10/04 05:53:35;;;;;;;45.83;5.45;;;;;;;10.00;100.00;101598.88;4920606;29;20028;-86
2022/10/04 06:00:48;;;;;;;36.15;5.72;;;11.20;99.90;;;10.14;100.00;101600.22;4913076;29;20091;-87
2022/10/04 06:04:13;;;;;;;37.42;4.70;;;11.20;99.90;;;10.17;100.00;101600.09;4932480;29;20039;-86
2022/10/04 06:10:40;;;;;;;34.75;4.57;;;11.20;99.90;;;10.24;100.00;101602.50;4918727;29;20043;-86
2022/10/04 06:13:53;;;;;;;27.55;4.43;;;;;;;11.10;100.00;101601.50;4931261;29;20040;-86
2022/10/04 06:17:21;;;;;;;36.28;4.72;;;11.50;99.90;;;12.02;100.00;101610.47;4910155;29;20036;-87
2022/10/04 06:20:43;;;;;;;31.40;4.15;;;12.50;99.90;;;18.00;87.56;101620.81;4924685;29;20044;-86
2022/10/04 06:30:26;;;;;;;31.20;3.55;;;18.50;99.90;;;26.37;53.73;101636.22;4914313;29;20050;-87
2022/10/04 06:33:21;;;;;;;16.20;2.90;;;20.20;99.90;;;26.91;50.02;101633.53;4912503;29;20036;-87
2022/10/04 06:36:52;;;;;;;;;;;;;;;;;;;;;
2022/10/04 06:39:46;;;;;;;17.58;3.03;;;21.30;99.90;;;26.92;50.03;101649.59;4916888;29;20570;-87
2022/10/04 06:42:33;;;;;;;;;;;;;;;;;;;;;
2022/10/04 06:45:39;;;;;;;20.67;3.35;;;23.10;99.90;;;29.37;45.34;101645.19;4919076;29;20035;-87
2022/10/04 06:49:16;;;;;;;24.92;3.28;;;24.30;99.90;;;30.49;43.49;101661.38;4925817;29;20136;-86
2022/10/04 06:52:15;;;;;;;21.25;2.90;;;25.40;99.90;;;31.00;40.95;101662.53;4868681;29;20063;-85
2022/10/04 06:55:40;;;;;;;26.65;3.58;;;25.90;99.90;;;31.31;41.06;101667.00;4876722;29;20029;-86
2022/10/04 06:58:36;;;;;;;22.50;3.35;;;26.40;99.90;;;30.79;40.58;101679.50;4914409;29;20032;-87
2022/10/04 07:01:51;;;;;;;17.70;3.47;;;26.50;99.90;;;28.16;44.84;101675.56;4912083;29;20032;-86
2022/10/04 07:05:02;;;;;;;16.75;2.78;;;25.60;99.90;;;26.40;49.25;101679.13;4904423;29;20703;-86
2022/10/04 07:07:53;;;;;;;20.85;3.15;;;25.40;99.90;;;28.78;44.61;101686.88;4932381;29;20047;-86
2022/10/04 07:11:05;;;;;;;19.05;3.10;;;25.80;99.90;;;27.49;44.43;101684.31;4931368;29;20047;-86
2022/10/04 07:13:55;;;;;;;23.83;3.30;;;25.40;99.70;;;24.09;51.75;101681.81;4917040;29;20398;-86
2022/10/04 07:17:02;;;;;;;19.70;3.45;;;24.30;99.90;;;22.21;55.61;101693.19;4929757;29;20032;-86
2022/10/04 07:19:46;;;;;;;21.08;2.78;;;22.40;99.90;;;20.12;60.42;101685.75;4913588;29;20038;-86
2022/10/04 07:22:41;;;;;;;23.52;3.50;;;21.10;99.90;;;18.51;65.42;101692.22;4932086;29;20055;-86
2022/10/04 07:25:35;;;;;;;29.33;4.10;;;19.80;99.90;;;17.68;69.53;101684.06;4904744;29;20124;-86
2022/10/04 07:31:26;;;;;;;31.27;3.92;;;;;;;16.74;74.25;101678.09;4919303;29;20045;-86
2022/10/04 07:34:02;;;;;;;21.48;3.47;;;17.80;99.90;;;16.36;76.68;101692.59;4918425;29;20592;-86
2022/10/04 07:36:59;;;;;;;23.77;2.95;;;17.30;99.90;;;15.90;78.22;101688.97;4900637;29;20032;-86
2022/10/04 07:40:28;;;;;;;17.02;2.75;;;16.90;99.90;;;15.46;80.46;101684.16;4910185;29;20123;-86
2022/10/04 07:43:09;;;;;;;22.65;3.13;;;;;;;15.24;81.98;101684.41;4909805;29;20024;-86
2022/10/04 07:45:40;;;;;;;21.42;2.95;;;16.40;99.90;;;15.05;83.55;101679.16;4930095;29;20059;-87
2022/10/04 07:48:22;;;;;;;25.50;3.63;;;16.20;99.90;;;14.96;84.29;101683.97;4905541;29;20038;-86
2022/10/04 07:51:02;;;;;;;17.25;2.90;;;16.00;99.90;;;14.83;85.36;101688.19;4928976;29;20052;-86
2022/10/04 07:53:51;;;;;;;25.05;3.25;;;15.80;99.90;;;14.71;86.38;101687.00;4910548;29;20043;-86
2022/10/04 07:56:31;;;;;;;17.27;2.63;;;15.80;99.90;;;14.67;87.58;101689.88;4905553;29;20057;-86
2022/10/04 07:59:28;;;;;;;27.05;3.33;;;15.70;99.90;;;14.70;87.33;101687.06;4918993;29;20031;-86
2022/10/04 08:02:31;;;;;;;24.75;3.22;;;15.70;99.90;;;14.83;87.08;101696.13;4917089;29;20028;-86
2022/10/04 08:05:36;;;;;;;27.35;3.60;;;15.80;99.90;;;14.90;87.62;101692.28;4937352;29;20036;-86
2022/10/04 08:08:30;;;;;;;19.10;2.92;;;15.80;99.90;;;14.90;87.90;101694.03;4921848;29;20044;-86
2022/10/04 08:11:31;;;;;;;22.35;3.38;;;15.80;99.90;;;14.92;87.75;101689.53;4925609;29;20058;-87
2022/10/04 08:14:34;;;;;;;25.17;3.50;;;;;;;15.04;86.85;101699.53;4924601;29;20085;-87
2022/10/04 08:17:37;;;;;;;19.58;3.78;;;15.90;99.90;;;15.17;86.30;101700.63;4924855;29;20040;-86
2022/10/04 08:20:48;;;;;;;27.77;3.72;;;16.10;99.90;;;15.33;85.49;101700.72;4924445;29;20103;-86
2022/10/04 08:23:41;;;;;;;20.83;3.00;;;16.20;99.90;;;15.49;84.17;101694.63;4922661;29;20047;-85
2022/10/04 08:26:56;;;;;;;30.15;3.53;;;16.30;99.90;;;15.65;82.87;101694.66;4935843;29;20043;-86
2022/10/04 08:29:53;;;;;;;20.83;3.20;;;16.40;99.90;;;15.86;82.25;101692.72;4937202;29;20568;-85
2022/10/04 08:32:51;;;;;;;;;;;16.40;99.90;;;16.14;82.04;101686.78;4913787;29;20024;-85
2022/10/04 08:35:28;;;;;;;20.15;3.10;;;16.80;99.90;;;16.29;81.05;101701.88;4909247;29;19948;-88
2022/10/04 08:38:22;;;;;;;21.48;3.03;;;16.90;99.90;;;16.33;80.22;101695.44;4939271;29;20036;-86
2022/10/04 08:41:07;;;;;;;27.30;3.08;;;17.00;99.90;;;16.34;80.93;101690.97;4938017;29;20036;-85
2022/10/04 08:44:22;;;;;;;39.45;4.15;;;17.10;99.90;;;16.29;80.57;101688.56;4920876;29;20040;-86
2022/10/04 08:47:19;;;;;;;20.40;3.05;;;17.10;99.90;;;16.18;81.01;101686.50;4917194;29;20069;-86
2022/10/04 08:50:25;;;;;;;23.55;3.95;;;17.00;99.90;;;16.20;81.82;101689.94;4935676;29;20032;-87
2022/10/04 08:53:03;;;;;;;20.05;2.97;;;;;;;16.28;81.34;101691.31;4924555;29;20034;-85
2022/10/04 08:56:17;;;;;;;29.30;3.47;;;17.10;99.90;;;16.34;81.52;101693.63;4915750;29;20032;-85
2022/10/04 08:59:12;;;;;;;28.45;3.15;;;17.10;99.90;;;16.31;80.91;101693.81;4934373;29;20056;-86
2022/10/04 09:01:59;;;;;;;22.67;3.60;;;17.10;99.90;;;16.28;82.03;101688.66;4921180;29;20032;-86
2022/10/04 09:05:03;;;;;;;24.58;3.80;;;17.10;99.90;;;16.24;82.65;101684.44;4906683;29;20035;-86
2022/10/04 09:08:34;;;;;;;25.85;3.20;;;17.00;99.90;;;16.01;82.93;101697.19;4909082;29;20039;-85
2022/10/04 09:11:28;;;;;;;28.58;4.15;;;16.90;99.90;;;16.05;83.66;101696.09;4919210;29;20035;-86
2022/10/04 09:14:41;;;;;;;40.35;4.50;;;16.90;99.90;;;16.05;84.29;101697.91;4923935;29;20079;-86
2022/10/04 09:17:49;;;;;;;44.45;8.48;;;16.80;99.90;;;15.66;84.84;101702.56;4925486;29;20413;-87
2022/10/04 09:21:04;;;;;;;41.35;8.38;;;16.60;99.90;;;15.44;86.70;101708.09;4928681;28;20127;-85
2022/10/04 09:24:18;;;;;;;38.38;9.15;;;16.40;99.90;;;15.54;88.16;101704.06;4931100;29;20043;-85
2022/10/04 09:27:26;;;;;;;39.70;9.13;;;16.50;99.90;;;15.79;87.44;101706.31;4927872;29;20091;-86
2022/10/04 09:30:23;;;;;;;30.80;7.68;;;16.50;99.90;;;15.83;87.43;101707.03;4911795;29;20183;-85
2022/10/04 09:33:22;;;;;;;33.40;8.52;;;16.70;99.90;;;15.77;86.94;101705.53;4936179;29;20021;-85
2022/10/04 09:36:35;;;;;;;32.58;8.80;;;16.60;99.90;;;15.70;86.67;101714.75;4927264;29;20047;-85
2022/10/04 09:39:57;;;;;;;33.70;10.48;;;16.50;99.90;;;15.31;87.77;101721.19;4929824;29;20048;-85
2022/10/04 09:43:10;;;;;;;35.42;11.10;;;16.20;99.90;;;14.98;89.19;101726.34;4936072;29;20564;-85
2022/10/04 09:46:32;;;;;;;30.45;11.10;;;16.00;99.90;;;14.84;90.71;101728.81;4920771;29;20083;-86
2022/10/04 09:49:52;;;;;;;30.73;9.93;;;15.90;99.90;;;14.72;92.25;101722.31;4927746;29;20051;-86
2022/10/04 09:52:57;;;;;;;28.92;8.82;;;15.70;99.90;;;14.57;92.98;101722.09;4921966;29;20101;-85
2022/10/04 09:55:41;;;;;;;29.90;8.95;;;15.60;99.90;;;14.55;93.13;101723.13;4927608;29;20040;-84
2022/10/04 09:58:45;;;;;;;29.55;10.10;;;15.50;99.90;;;14.42;93.38;101720.16;4923316;29;20591;-85
2022/10/04 10:01:39;;;;;;;24.50;8.98;;;15.50;99.90;;;14.38;94.03;101723.88;4923722;29;20123;-84
2022/10/04 10:04:29;;;;;;;26.65;8.90;;;15.40;99.90;;;14.35;94.66;101726.69;4934094;29;20024;-83
2022/10/04 10:07:47;;;;;;;29.73;9.30;;;15.40;99.90;;;14.41;94.84;101725.53;4922475;29;20048;-85
2022/10/04 10:13:52;;;;;;;23.40;8.82;;;;;;;15.36;92.01;101727.09;4915740;29;20047;-85
2022/10/04 10:16:52;;;;;;;18.42;7.85;;;16.10;99.90;;;15.77;88.35;101726.78;4935948;29;20028;-85
2022/10/04 10:20:21;;;;;;;19.58;8.18;;;16.50;99.90;;;15.92;85.81;101719.81;4952185;28;20063;-88
2022/10/04 10:23:34;;;;;;;17.80;7.53;;;16.60;99.90;;;16.08;84.15;101727.81;4929858;29;20092;-85
2022/10/04 10:26:40;;;;;;;22.25;7.80;;;16.80;99.90;;;16.22;83.90;101727.06;4916291;29;20147;-85
2022/10/04 10:30:08;;;;;;;16.38;7.13;;;16.90;99.90;;;16.00;83.58;101711.41;4928079;29;20054;-86
2022/10/04 10:32:51;;;;;;;16.58;6.43;;;;;;;16.18;83.40;101712.25;4917899;29;20484;-87
2022/10/04 10:35:59;;;;;;;19.02;6.10;;;16.90;99.90;;;16.31;83.44;101710.63;4939148;29;20036;-87
2022/10/04 10:39:12;;;;;;;11.02;4.80;;;17.10;99.90;;;16.44;81.94;101702.81;4931015;29;20044;-85
2022/10/04 10:45:44;;;;;;;10.00;4.57;;;17.60;99.90;;;17.06;79.57;101692.19;4923276;29;20040;-85
2022/10/04 10:48:50;;;;;;;14.10;5.22;;;;;;;16.99;78.65;101686.38;4931580;29;20044;-85
2022/10/04 10:54:56;;;;;;;13.00;6.20;;;17.80;99.90;;;17.02;78.30;101694.22;4989769;23;20052;-85
2022/10/04 11:01:34;;;;;;;12.52;5.57;;;17.70;99.90;;;16.98;79.33;101697.16;4956581;28;20039;-84
2022/10/04 11:08:18;;;;;;;9.10;5.38;;;;;;;16.88;79.09;101693.28;4942540;29;20043;-84
2022/10/04 11:11:31;;;;;;;11.00;4.25;;;17.70;99.90;;;16.87;79.64;101687.13;4955817;23;20520;-86
2022/10/04 11:15:13;;;;;;;11.40;4.07;;;17.70;99.90;;;17.04;79.92;101690.59;4952324;28;20051;-85
2022/10/04 11:18:10;;;;;;;10.85;3.90;;;;;;;17.18;80.15;101694.16;4879220;29;20116;-86
2022/10/04 11:21:24;;;;;;;13.00;4.90;;;18.00;99.90;;;17.29;79.02;101701.50;4940377;29;20047;-85
2022/10/04 11:24:33;;;;;;;13.55;4.72;;;18.00;99.90;;;17.14;78.83;101694.44;4941892;28;20043;-85
2022/10/04 11:27:28;;;;;;;15.13;4.47;;;17.90;99.90;;;17.07;78.94;101703.72;4966843;28;20050;-85
2022/10/04 11:30:13;;;;;;;14.40;4.68;;;17.90;99.90;;;17.13;80.33;101704.22;4946263;28;20050;-85
2022/10/04 11:33:19;;;;;;;18.05;5.78;;;17.90;99.90;;;17.24;80.05;101697.41;4942849;28;20043;-85
2022/10/04 11:36:32;;;;;;;13.90;4.88;;;18.00;99.90;;;17.24;79.29;101700.09;4969860;28;20038;-85
2022/10/04 11:39:41;;;;;;;11.40;4.72;;;18.00;99.90;;;17.07;78.91;101701.06;4956192;28;20039;-85
2022/10/04 11:43:03;;;;;;;13.25;4.45;;;17.90;99.90;;;17.06;79.11;101700.19;4974431;28;20062;-85
2022/10/04 11:45:53;;;;;;;12.73;4.78;;;17.90;99.90;;;17.09;79.56;101693.84;4970144;28;20039;-85
2022/10/04 11:49:04;;;;;;;10.68;4.35;;;18.00;99.90;;;17.33;79.48;101697.72;4947664;28;20110;-85
2022/10/04 11:51:51;;;;;;;12.93;4.55;;;18.10;99.90;;;17.52;78.32;101688.63;4971832;28;20045;-84
2022/10/04 11:54:48;;;;;;;;;;;18.20;99.90;;;17.70;78.72;101684.84;4945399;28;20165;-85
2022/10/04 11:57:51;;;;;;;10.65;4.15;;;18.40;99.90;;;17.80;77.86;101683.31;4976949;28;20334;-86
2022/10/04 12:00:23;;;;;;;10.25;4.15;;;18.50;99.90;;;17.92;77.28;101670.22;4956326;28;20027;-85
2022/10/04 12:03:47;;;;;;;14.85;4.30;;;18.60;99.90;;;17.90;76.92;101678.28;4958460;28;20034;-86
2022/10/04 12:07:10;;;;;;;14.68;4.78;;;18.70;99.90;;;17.90;76.63;101675.63;4974796;28;20399;-84
2022/10/04 12:09:58;;;;;;;13.70;4.07;;;18.70;99.90;;;17.94;76.67;101665.66;4957729;28;20050;-85
2022/10/04 12:12:50;;;;;;;18.02;4.32;;;18.70;99.90;;;18.04;77.40;101669.47;4975678;28;20041;-85
2022/10/04 12:16:07;;;;;;;14.35;4.28;;;18.80;99.90;;;17.99;77.30;101661.75;4959570;28;20479;-86
2022/10/04 12:19:18;;;;;;;10.90;3.72;;;18.80;99.90;;;17.99;76.25;101666.22;4962383;28;20038;-86
2022/10/04 12:22:42;;;;;;;15.32;3.50;;;18.70;99.90;;;17.72;76.23;101669.63;4945573;28;20082;-84
2022/10/04 12:25:51;;;;;;;8.80;3.45;;;18.50;99.90;;;17.65;77.71;101662.97;4980245;23;20712;-81
2022/10/04 12:28:58;;;;;;;12.93;3.15;;;18.40;99.90;;;17.51;77.43;101660.28;4944651;28;20055;-81
2022/10/04 12:32:15;;;;;;;15.43;3.13;;;18.30;99.90;;;17.51;76.53;101661.13;4958401;28;20074;-81
2022/10/04 12:35:13;;;;;;;9.75;3.10;;;18.30;99.90;;;17.57;77.66;101658.09;4941457;28;20051;-81